sensor_id;sensor_type;location;lat;lon;timestamp;P1;durP1;ratioP1;P2;durP2;ratioP2
44145;SDS011;29809;52.432;4.780;2023-09-19T00:01:33;3.92;;;1.17;;
44145;SDS011;29809;52.432;4.780;2023-09-19T00:03:58;3.38;;;1.30;;
44145;SDS011;29809;52.432;4.780;2023-09-19T00:06:24;3.58;;;1.10;;
44145;SDS011;29809;52.432;4.780;2023-09-19T00:08:51;4.20;;;1.30;;
44145;SDS011;29809;52.432;4.780;2023-09-19T00:11:16;3.13;;;1.30;;
44145;SDS011;29809;52.432;4.780;2023-09-19T00:13:42;5.75;;;1.67;;
44145;SDS011;29809;52.432;4.780;2023-09-19T00:16:08;3.97;;;1.40;;
44145;SDS011;29809;52.432;4.780;2023-09-19T00:18:35;4.38;;;1.40;;
44145;SDS011;29809;52.432;4.780;2023-09-19T00:21:01;4.78;;;1.58;;
44145;SDS011;29809;52.432;4.780;2023-09-19T00:23:26;4.22;;;1.30;;
44145;SDS011;29809;52.432;4.780;2023-09-19T00:25:52;9.43;;;1.75;;
44145;SDS011;29809;52.432;4.780;2023-09-19T00:28:17;3.90;;;1.05;;
44145;SDS011;29809;52.432;4.780;2023-09-19T00:30:45;6.60;;;1.60;;
44145;SDS011;29809;52.432;4.780;2023-09-19T00:33:11;3.08;;;1.30;;
44145;SDS011;29809;52.432;4.780;2023-09-19T00:35:46;5.65;;;1.40;;
44145;SDS011;29809;52.432;4.780;2023-09-19T00:38:11;3.30;;;1.20;;
44145;SDS011;29809;52.432;4.780;2023-09-19T00:40:43;4.03;;;1.25;;
44145;SDS011;29809;52.432;4.780;2023-09-19T00:43:08;4.20;;;1.52;;
44145;SDS011;29809;52.432;4.780;2023-09-19T00:45:33;4.75;;;1.40;;
44145;SDS011;29809;52.432;4.780;2023-09-19T00:48:01;2.67;;;1.13;;
44145;SDS011;29809;52.432;4.780;2023-09-19T00:50:28;2.78;;;1.50;;
44145;SDS011;29809;52.432;4.780;2023-09-19T00:52:54;3.90;;;1.45;;
44145;SDS011;29809;52.432;4.780;2023-09-19T00:55:23;6.60;;;1.23;;
44145;SDS011;29809;52.432;4.780;2023-09-19T00:57:49;9.18;;;1.55;;
44145;SDS011;29809;52.432;4.780;2023-09-19T01:00:15;5.03;;;1.42;;
44145;SDS011;29809;52.432;4.780;2023-09-19T01:02:41;5.28;;;1.33;;
44145;SDS011;29809;52.432;4.780;2023-09-19T01:05:07;3.83;;;1.20;;
44145;SDS011;29809;52.432;4.780;2023-09-19T01:07:33;5.40;;;1.40;;
44145;SDS011;29809;52.432;4.780;2023-09-19T01:10:04;4.70;;;1.35;;
44145;SDS011;29809;52.432;4.780;2023-09-19T01:15:38;4.85;;;1.80;;
44145;SDS011;29809;52.432;4.780;2023-09-19T01:31:19;3.75;;;1.00;;
44145;SDS011;29809;52.432;4.780;2023-09-19T01:33:54;3.92;;;1.40;;
44145;SDS011;29809;52.432;4.780;2023-09-19T01:36:22;5.05;;;1.42;;
44145;SDS011;29809;52.432;4.780;2023-09-19T01:38:49;7.28;;;1.80;;
44145;SDS011;29809;52.432;4.780;2023-09-19T01:41:14;4.57;;;1.48;;
44145;SDS011;29809;52.432;4.780;2023-09-19T01:43:44;7.00;;;1.48;;
44145;SDS011;29809;52.432;4.780;2023-09-19T01:51:13;3.20;;;1.42;;
44145;SDS011;29809;52.432;4.780;2023-09-19T01:56:37;4.97;;;1.70;;
44145;SDS011;29809;52.432;4.780;2023-09-19T01:59:16;5.55;;;1.80;;
44145;SDS011;29809;52.432;4.780;2023-09-19T02:01:42;7.10;;;1.55;;
44145;SDS011;29809;52.432;4.780;2023-09-19T02:04:10;4.15;;;1.67;;
44145;SDS011;29809;52.432;4.780;2023-09-19T02:06:35;5.07;;;2.05;;
44145;SDS011;29809;52.432;4.780;2023-09-19T02:09:00;5.78;;;1.50;;
44145;SDS011;29809;52.432;4.780;2023-09-19T02:11:26;3.15;;;1.40;;
44145;SDS011;29809;52.432;4.780;2023-09-19T02:13:51;5.38;;;1.30;;
44145;SDS011;29809;52.432;4.780;2023-09-19T02:16:19;3.05;;;1.15;;
44145;SDS011;29809;52.432;4.780;2023-09-19T02:18:45;3.25;;;1.17;;
44145;SDS011;29809;52.432;4.780;2023-09-19T02:21:10;4.18;;;1.60;;
44145;SDS011;29809;52.432;4.780;2023-09-19T02:23:37;6.85;;;2.15;;
44145;SDS011;29809;52.432;4.780;2023-09-19T02:26:03;2.90;;;1.27;;
44145;SDS011;29809;52.432;4.780;2023-09-19T02:28:31;3.22;;;1.40;;
44145;SDS011;29809;52.432;4.780;2023-09-19T02:30:57;5.30;;;2.22;;
44145;SDS011;29809;52.432;4.780;2023-09-19T02:33:22;4.00;;;1.33;;
44145;SDS011;29809;52.432;4.780;2023-09-19T02:35:47;6.40;;;1.60;;
44145;SDS011;29809;52.432;4.780;2023-09-19T02:38:13;4.50;;;1.25;;
44145;SDS011;29809;52.432;4.780;2023-09-19T02:40:39;6.30;;;1.40;;
44145;SDS011;29809;52.432;4.780;2023-09-19T02:43:05;4.57;;;1.60;;
44145;SDS011;29809;52.432;4.780;2023-09-19T02:45:30;4.32;;;1.60;;
44145;SDS011;29809;52.432;4.780;2023-09-19T02:47:55;2.88;;;1.35;;
44145;SDS011;29809;52.432;4.780;2023-09-19T02:50:21;6.20;;;1.67;;
44145;SDS011;29809;52.432;4.780;2023-09-19T02:52:46;8.30;;;1.92;;
44145;SDS011;29809;52.432;4.780;2023-09-19T02:55:15;5.85;;;2.20;;
44145;SDS011;29809;52.432;4.780;2023-09-19T02:58:00;4.50;;;1.70;;
44145;SDS011;29809;52.432;4.780;2023-09-19T03:00:26;4.70;;;1.40;;
44145;SDS011;29809;52.432;4.780;2023-09-19T03:02:55;6.05;;;1.60;;
44145;SDS011;29809;52.432;4.780;2023-09-19T03:05:20;3.75;;;1.55;;
44145;SDS011;29809;52.432;4.780;2023-09-19T03:07:47;6.53;;;1.75;;
44145;SDS011;29809;52.432;4.780;2023-09-19T03:10:16;4.55;;;1.73;;
44145;SDS011;29809;52.432;4.780;2023-09-19T03:12:41;5.50;;;1.40;;
44145;SDS011;29809;52.432;4.780;2023-09-19T03:15:07;3.20;;;1.38;;
44145;SDS011;29809;52.432;4.780;2023-09-19T03:17:33;4.47;;;1.67;;
44145;SDS011;29809;52.432;4.780;2023-09-19T03:19:59;6.45;;;1.83;;
44145;SDS011;29809;52.432;4.780;2023-09-19T03:22:24;3.22;;;1.30;;
44145;SDS011;29809;52.432;4.780;2023-09-19T03:24:50;7.38;;;1.60;;
44145;SDS011;29809;52.432;4.780;2023-09-19T03:27:15;7.30;;;2.05;;
44145;SDS011;29809;52.432;4.780;2023-09-19T03:29:41;6.65;;;1.75;;
44145;SDS011;29809;52.432;4.780;2023-09-19T03:32:06;6.25;;;2.13;;
44145;SDS011;29809;52.432;4.780;2023-09-19T03:34:31;6.28;;;1.70;;
44145;SDS011;29809;52.432;4.780;2023-09-19T03:36:57;5.50;;;1.67;;
44145;SDS011;29809;52.432;4.780;2023-09-19T03:39:22;4.95;;;1.77;;
44145;SDS011;29809;52.432;4.780;2023-09-19T03:41:47;6.93;;;1.85;;
44145;SDS011;29809;52.432;4.780;2023-09-19T03:44:13;6.53;;;1.75;;
44145;SDS011;29809;52.432;4.780;2023-09-19T03:46:38;4.90;;;1.08;;
44145;SDS011;29809;52.432;4.780;2023-09-19T03:49:03;6.38;;;1.42;;
44145;SDS011;29809;52.432;4.780;2023-09-19T03:51:29;7.78;;;1.90;;
44145;SDS011;29809;52.432;4.780;2023-09-19T03:53:54;8.75;;;1.90;;
44145;SDS011;29809;52.432;4.780;2023-09-19T03:56:20;5.43;;;1.50;;
44145;SDS011;29809;52.432;4.780;2023-09-19T03:58:45;5.10;;;1.02;;
44145;SDS011;29809;52.432;4.780;2023-09-19T04:01:10;6.85;;;1.90;;
44145;SDS011;29809;52.432;4.780;2023-09-19T04:03:35;8.15;;;1.40;;
44145;SDS011;29809;52.432;4.780;2023-09-19T04:06:10;4.65;;;1.60;;
44145;SDS011;29809;52.432;4.780;2023-09-19T04:08:35;6.07;;;1.45;;
44145;SDS011;29809;52.432;4.780;2023-09-19T04:11:01;3.63;;;1.30;;
44145;SDS011;29809;52.432;4.780;2023-09-19T04:13:26;5.53;;;1.33;;
44145;SDS011;29809;52.432;4.780;2023-09-19T04:15:51;4.15;;;1.50;;
44145;SDS011;29809;52.432;4.780;2023-09-19T04:18:17;7.03;;;2.33;;
44145;SDS011;29809;52.432;4.780;2023-09-19T04:20:47;4.35;;;1.50;;
44145;SDS011;29809;52.432;4.780;2023-09-19T04:23:12;6.03;;;1.70;;
44145;SDS011;29809;52.432;4.780;2023-09-19T04:25:38;6.68;;;2.35;;
44145;SDS011;29809;52.432;4.780;2023-09-19T04:28:05;8.80;;;1.35;;
44145;SDS011;29809;52.432;4.780;2023-09-19T04:30:31;6.95;;;1.60;;
44145;SDS011;29809;52.432;4.780;2023-09-19T04:32:56;3.58;;;1.63;;
44145;SDS011;29809;52.432;4.780;2023-09-19T04:35:21;4.45;;;1.63;;
44145;SDS011;29809;52.432;4.780;2023-09-19T04:37:47;8.52;;;2.47;;
44145;SDS011;29809;52.432;4.780;2023-09-19T04:40:13;5.80;;;1.58;;
44145;SDS011;29809;52.432;4.780;2023-09-19T04:42:42;4.95;;;1.80;;
44145;SDS011;29809;52.432;4.780;2023-09-19T04:45:08;7.03;;;1.52;;
44145;SDS011;29809;52.432;4.780;2023-09-19T04:47:35;6.22;;;1.65;;
44145;SDS011;29809;52.432;4.780;2023-09-19T04:50:00;6.38;;;1.80;;
44145;SDS011;29809;52.432;4.780;2023-09-19T04:52:25;8.35;;;2.00;;
44145;SDS011;29809;52.432;4.780;2023-09-19T04:54:50;5.18;;;1.52;;
44145;SDS011;29809;52.432;4.780;2023-09-19T04:57:16;9.55;;;1.83;;
44145;SDS011;29809;52.432;4.780;2023-09-19T04:59:41;6.07;;;1.60;;
44145;SDS011;29809;52.432;4.780;2023-09-19T05:02:06;5.80;;;1.80;;
44145;SDS011;29809;52.432;4.780;2023-09-19T05:04:33;3.92;;;1.48;;
44145;SDS011;29809;52.432;4.780;2023-09-19T05:06:58;5.15;;;1.90;;
44145;SDS011;29809;52.432;4.780;2023-09-19T05:09:23;38.63;;;11.15;;
44145;SDS011;29809;52.432;4.780;2023-09-19T05:11:49;36.05;;;10.27;;
44145;SDS011;29809;52.432;4.780;2023-09-19T05:14:16;19.30;;;7.13;;
44145;SDS011;29809;52.432;4.780;2023-09-19T05:16:41;25.05;;;7.95;;
44145;SDS011;29809;52.432;4.780;2023-09-19T05:19:07;19.35;;;4.95;;
44145;SDS011;29809;52.432;4.780;2023-09-19T05:21:36;13.90;;;5.80;;
44145;SDS011;29809;52.432;4.780;2023-09-19T05:24:05;10.30;;;4.07;;
44145;SDS011;29809;52.432;4.780;2023-09-19T05:26:31;7.93;;;3.47;;
44145;SDS011;29809;52.432;4.780;2023-09-19T05:28:56;10.40;;;4.03;;
44145;SDS011;29809;52.432;4.780;2023-09-19T05:31:22;9.57;;;3.60;;
44145;SDS011;29809;52.432;4.780;2023-09-19T05:33:48;8.82;;;3.03;;
44145;SDS011;29809;52.432;4.780;2023-09-19T05:36:14;5.57;;;2.53;;
44145;SDS011;29809;52.432;4.780;2023-09-19T05:38:40;6.90;;;3.00;;
44145;SDS011;29809;52.432;4.780;2023-09-19T05:41:07;6.68;;;2.60;;
44145;SDS011;29809;52.432;4.780;2023-09-19T05:43:33;7.28;;;2.60;;
44145;SDS011;29809;52.432;4.780;2023-09-19T05:45:59;6.13;;;2.08;;
44145;SDS011;29809;52.432;4.780;2023-09-19T05:48:24;4.53;;;2.05;;
44145;SDS011;29809;52.432;4.780;2023-09-19T05:50:50;9.45;;;2.03;;
44145;SDS011;29809;52.432;4.780;2023-09-19T05:53:15;7.13;;;2.28;;
44145;SDS011;29809;52.432;4.780;2023-09-19T05:55:41;5.97;;;2.65;;
44145;SDS011;29809;52.432;4.780;2023-09-19T05:58:06;7.88;;;2.03;;
44145;SDS011;29809;52.432;4.780;2023-09-19T06:00:32;8.57;;;2.75;;
44145;SDS011;29809;52.432;4.780;2023-09-19T06:02:58;11.00;;;2.35;;
44145;SDS011;29809;52.432;4.780;2023-09-19T06:05:26;7.93;;;2.03;;
44145;SDS011;29809;52.432;4.780;2023-09-19T06:07:52;6.38;;;1.90;;
44145;SDS011;29809;52.432;4.780;2023-09-19T06:10:17;3.85;;;1.75;;
44145;SDS011;29809;52.432;4.780;2023-09-19T06:12:43;8.40;;;2.58;;
44145;SDS011;29809;52.432;4.780;2023-09-19T06:15:09;5.40;;;1.63;;
44145;SDS011;29809;52.432;4.780;2023-09-19T06:17:37;10.00;;;2.33;;
44145;SDS011;29809;52.432;4.780;2023-09-19T06:20:06;6.53;;;1.95;;
44145;SDS011;29809;52.432;4.780;2023-09-19T06:22:38;5.70;;;2.17;;
44145;SDS011;29809;52.432;4.780;2023-09-19T06:25:03;5.90;;;2.33;;
44145;SDS011;29809;52.432;4.780;2023-09-19T06:27:28;8.57;;;2.25;;
44145;SDS011;29809;52.432;4.780;2023-09-19T06:29:54;8.38;;;2.60;;
44145;SDS011;29809;52.432;4.780;2023-09-19T06:32:19;7.15;;;2.10;;
44145;SDS011;29809;52.432;4.780;2023-09-19T06:34:52;9.98;;;2.03;;
44145;SDS011;29809;52.432;4.780;2023-09-19T06:37:19;4.80;;;2.08;;
44145;SDS011;29809;52.432;4.780;2023-09-19T06:39:44;10.23;;;2.33;;
44145;SDS011;29809;52.432;4.780;2023-09-19T06:42:09;8.25;;;2.72;;
44145;SDS011;29809;52.432;4.780;2023-09-19T06:44:36;7.68;;;2.03;;
44145;SDS011;29809;52.432;4.780;2023-09-19T06:47:01;7.82;;;1.90;;
44145;SDS011;29809;52.432;4.780;2023-09-19T06:49:26;4.15;;;1.83;;
44145;SDS011;29809;52.432;4.780;2023-09-19T06:51:54;10.25;;;2.30;;
44145;SDS011;29809;52.432;4.780;2023-09-19T06:54:20;6.28;;;1.80;;
44145;SDS011;29809;52.432;4.780;2023-09-19T06:56:45;7.32;;;2.35;;
44145;SDS011;29809;52.432;4.780;2023-09-19T06:59:10;8.43;;;2.33;;
44145;SDS011;29809;52.432;4.780;2023-09-19T07:01:39;4.45;;;1.80;;
44145;SDS011;29809;52.432;4.780;2023-09-19T07:04:05;8.82;;;2.58;;
44145;SDS011;29809;52.432;4.780;2023-09-19T07:06:30;7.20;;;2.15;;
44145;SDS011;29809;52.432;4.780;2023-09-19T07:08:55;4.70;;;1.95;;
44145;SDS011;29809;52.432;4.780;2023-09-19T07:11:20;8.57;;;2.17;;
44145;SDS011;29809;52.432;4.780;2023-09-19T07:13:47;9.98;;;2.25;;
44145;SDS011;29809;52.432;4.780;2023-09-19T07:16:12;10.27;;;2.78;;
44145;SDS011;29809;52.432;4.780;2023-09-19T07:18:38;7.05;;;2.05;;
44145;SDS011;29809;52.432;4.780;2023-09-19T07:21:03;7.03;;;2.38;;
44145;SDS011;29809;52.432;4.780;2023-09-19T07:23:31;6.20;;;2.30;;
44145;SDS011;29809;52.432;4.780;2023-09-19T07:26:00;6.85;;;1.75;;
44145;SDS011;29809;52.432;4.780;2023-09-19T07:28:25;6.97;;;1.88;;
44145;SDS011;29809;52.432;4.780;2023-09-19T07:30:50;8.95;;;1.63;;
44145;SDS011;29809;52.432;4.780;2023-09-19T07:33:16;7.60;;;2.42;;
44145;SDS011;29809;52.432;4.780;2023-09-19T07:35:44;7.72;;;2.03;;
44145;SDS011;29809;52.432;4.780;2023-09-19T07:38:11;5.63;;;2.20;;
44145;SDS011;29809;52.432;4.780;2023-09-19T07:40:36;6.53;;;2.15;;
44145;SDS011;29809;52.432;4.780;2023-09-19T07:43:01;4.78;;;1.85;;
44145;SDS011;29809;52.432;4.780;2023-09-19T07:45:33;7.15;;;2.00;;
44145;SDS011;29809;52.432;4.780;2023-09-19T07:47:58;10.75;;;2.30;;
44145;SDS011;29809;52.432;4.780;2023-09-19T07:50:26;5.70;;;2.00;;
44145;SDS011;29809;52.432;4.780;2023-09-19T07:52:52;4.95;;;2.05;;
44145;SDS011;29809;52.432;4.780;2023-09-19T07:55:17;8.45;;;2.63;;
44145;SDS011;29809;52.432;4.780;2023-09-19T07:57:44;6.90;;;2.05;;
44145;SDS011;29809;52.432;4.780;2023-09-19T08:00:10;13.38;;;2.17;;
44145;SDS011;29809;52.432;4.780;2023-09-19T08:02:39;7.82;;;2.00;;
44145;SDS011;29809;52.432;4.780;2023-09-19T08:05:05;8.05;;;2.38;;
44145;SDS011;29809;52.432;4.780;2023-09-19T08:07:32;7.72;;;2.20;;
44145;SDS011;29809;52.432;4.780;2023-09-19T08:09:57;5.25;;;1.55;;
44145;SDS011;29809;52.432;4.780;2023-09-19T08:12:23;7.35;;;2.33;;
44145;SDS011;29809;52.432;4.780;2023-09-19T08:14:48;5.50;;;2.70;;
44145;SDS011;29809;52.432;4.780;2023-09-19T08:17:14;8.77;;;2.15;;
44145;SDS011;29809;52.432;4.780;2023-09-19T08:19:39;7.82;;;2.33;;
44145;SDS011;29809;52.432;4.780;2023-09-19T08:22:06;7.00;;;2.15;;
44145;SDS011;29809;52.432;4.780;2023-09-19T08:24:35;5.05;;;2.38;;
44145;SDS011;29809;52.432;4.780;2023-09-19T08:27:00;6.97;;;2.35;;
44145;SDS011;29809;52.432;4.780;2023-09-19T08:29:26;4.15;;;1.95;;
44145;SDS011;29809;52.432;4.780;2023-09-19T08:31:55;6.68;;;1.88;;
44145;SDS011;29809;52.432;4.780;2023-09-19T08:34:20;8.48;;;2.63;;
44145;SDS011;29809;52.432;4.780;2023-09-19T08:36:46;8.25;;;2.30;;
44145;SDS011;29809;52.432;4.780;2023-09-19T08:39:13;5.93;;;2.00;;
44145;SDS011;29809;52.432;4.780;2023-09-19T08:41:39;6.22;;;2.05;;
44145;SDS011;29809;52.432;4.780;2023-09-19T08:44:04;7.32;;;2.20;;
44145;SDS011;29809;52.432;4.780;2023-09-19T08:46:30;9.30;;;2.75;;
44145;SDS011;29809;52.432;4.780;2023-09-19T08:49:05;6.82;;;2.25;;
44145;SDS011;29809;52.432;4.780;2023-09-19T08:51:39;8.65;;;2.35;;
44145;SDS011;29809;52.432;4.780;2023-09-19T08:54:07;7.70;;;2.25;;
44145;SDS011;29809;52.432;4.780;2023-09-19T08:56:32;6.47;;;2.63;;
44145;SDS011;29809;52.432;4.780;2023-09-19T08:59:07;7.95;;;2.10;;
44145;SDS011;29809;52.432;4.780;2023-09-19T09:01:38;6.40;;;1.92;;
44145;SDS011;29809;52.432;4.780;2023-09-19T09:04:07;8.40;;;2.35;;
44145;SDS011;29809;52.432;4.780;2023-09-19T09:06:34;6.80;;;2.03;;
44145;SDS011;29809;52.432;4.780;2023-09-19T09:08:59;8.95;;;2.35;;
44145;SDS011;29809;52.432;4.780;2023-09-19T09:11:25;8.20;;;2.08;;
44145;SDS011;29809;52.432;4.780;2023-09-19T09:13:50;11.13;;;2.55;;
44145;SDS011;29809;52.432;4.780;2023-09-19T09:16:16;5.07;;;2.20;;
44145;SDS011;29809;52.432;4.780;2023-09-19T09:18:44;8.32;;;2.30;;
44145;SDS011;29809;52.432;4.780;2023-09-19T09:21:10;7.28;;;2.75;;
44145;SDS011;29809;52.432;4.780;2023-09-19T09:23:35;10.40;;;2.53;;
44145;SDS011;29809;52.432;4.780;2023-09-19T09:26:01;7.68;;;2.55;;
44145;SDS011;29809;52.432;4.780;2023-09-19T09:28:31;6.65;;;2.35;;
44145;SDS011;29809;52.432;4.780;2023-09-19T09:30:58;8.98;;;2.45;;
44145;SDS011;29809;52.432;4.780;2023-09-19T09:33:23;6.38;;;2.47;;
44145;SDS011;29809;52.432;4.780;2023-09-19T09:35:49;9.18;;;3.03;;
44145;SDS011;29809;52.432;4.780;2023-09-19T09:38:17;8.60;;;2.60;;
44145;SDS011;29809;52.432;4.780;2023-09-19T09:40:50;8.98;;;2.40;;
44145;SDS011;29809;52.432;4.780;2023-09-19T09:43:30;6.25;;;2.13;;
44145;SDS011;29809;52.432;4.780;2023-09-19T09:46:12;6.13;;;2.10;;
44145;SDS011;29809;52.432;4.780;2023-09-19T09:48:44;6.85;;;1.98;;
44145;SDS011;29809;52.432;4.780;2023-09-19T09:51:16;6.93;;;2.53;;
44145;SDS011;29809;52.432;4.780;2023-09-19T09:53:54;9.10;;;2.45;;
44145;SDS011;29809;52.432;4.780;2023-09-19T09:56:34;7.78;;;2.30;;
44145;SDS011;29809;52.432;4.780;2023-09-19T09:59:10;7.68;;;2.55;;
44145;SDS011;29809;52.432;4.780;2023-09-19T10:01:46;7.55;;;2.95;;
44145;SDS011;29809;52.432;4.780;2023-09-19T10:04:12;8.35;;;2.30;;
44145;SDS011;29809;52.432;4.780;2023-09-19T10:06:53;6.32;;;1.95;;
44145;SDS011;29809;52.432;4.780;2023-09-19T10:09:19;7.95;;;2.67;;
44145;SDS011;29809;52.432;4.780;2023-09-19T10:12:03;6.72;;;2.03;;
44145;SDS011;29809;52.432;4.780;2023-09-19T10:14:30;10.48;;;2.75;;
44145;SDS011;29809;52.432;4.780;2023-09-19T10:16:59;7.20;;;2.72;;
44145;SDS011;29809;52.432;4.780;2023-09-19T10:19:45;5.95;;;2.25;;
44145;SDS011;29809;52.432;4.780;2023-09-19T10:22:14;7.97;;;2.40;;
44145;SDS011;29809;52.432;4.780;2023-09-19T10:24:45;8.35;;;2.75;;
44145;SDS011;29809;52.432;4.780;2023-09-19T10:27:11;6.32;;;2.30;;
44145;SDS011;29809;52.432;4.780;2023-09-19T10:29:38;9.82;;;2.70;;
44145;SDS011;29809;52.432;4.780;2023-09-19T10:32:04;7.32;;;1.88;;
44145;SDS011;29809;52.432;4.780;2023-09-19T10:34:34;5.10;;;2.28;;
44145;SDS011;29809;52.432;4.780;2023-09-19T10:37:00;5.45;;;2.35;;
44145;SDS011;29809;52.432;4.780;2023-09-19T10:39:30;8.05;;;1.92;;
44145;SDS011;29809;52.432;4.780;2023-09-19T10:41:56;7.05;;;2.60;;
44145;SDS011;29809;52.432;4.780;2023-09-19T10:44:27;6.82;;;2.22;;
44145;SDS011;29809;52.432;4.780;2023-09-19T10:46:56;5.43;;;1.83;;
44145;SDS011;29809;52.432;4.780;2023-09-19T10:49:22;4.72;;;2.05;;
44145;SDS011;29809;52.432;4.780;2023-09-19T10:51:47;8.35;;;2.10;;
44145;SDS011;29809;52.432;4.780;2023-09-19T10:54:15;7.82;;;2.47;;
44145;SDS011;29809;52.432;4.780;2023-09-19T10:56:42;6.55;;;1.92;;
44145;SDS011;29809;52.432;4.780;2023-09-19T10:59:17;6.93;;;1.77;;
44145;SDS011;29809;52.432;4.780;2023-09-19T11:01:47;6.88;;;2.05;;
44145;SDS011;29809;52.432;4.780;2023-09-19T11:06:59;8.43;;;1.83;;
44145;SDS011;29809;52.432;4.780;2023-09-19T11:09:24;5.20;;;1.65;;
44145;SDS011;29809;52.432;4.780;2023-09-19T11:11:51;3.30;;;1.50;;
44145;SDS011;29809;52.432;4.780;2023-09-19T11:22:22;5.35;;;1.60;;
44145;SDS011;29809;52.432;4.780;2023-09-19T11:24:47;3.42;;;1.48;;
44145;SDS011;29809;52.432;4.780;2023-09-19T11:27:13;3.80;;;1.27;;
44145;SDS011;29809;52.432;4.780;2023-09-19T11:29:39;5.93;;;2.10;;
44145;SDS011;29809;52.432;4.780;2023-09-19T11:32:05;4.93;;;1.33;;
44145;SDS011;29809;52.432;4.780;2023-09-19T11:37:03;5.45;;;2.03;;
44145;SDS011;29809;52.432;4.780;2023-09-19T11:42:46;6.18;;;1.88;;
44145;SDS011;29809;52.432;4.780;2023-09-19T11:48:03;7.40;;;1.83;;
44145;SDS011;29809;52.432;4.780;2023-09-19T11:50:31;4.53;;;1.75;;
44145;SDS011;29809;52.432;4.780;2023-09-19T11:52:57;8.57;;;1.85;;
44145;SDS011;29809;52.432;4.780;2023-09-19T11:55:23;5.97;;;1.67;;
44145;SDS011;29809;52.432;4.780;2023-09-19T11:57:50;4.10;;;1.88;;
44145;SDS011;29809;52.432;4.780;2023-09-19T12:00:19;4.72;;;1.40;;
44145;SDS011;29809;52.432;4.780;2023-09-19T12:02:46;5.20;;;1.30;;
44145;SDS011;29809;52.432;4.780;2023-09-19T12:05:11;4.18;;;1.40;;
44145;SDS011;29809;52.432;4.780;2023-09-19T12:07:43;5.93;;;1.45;;
44145;SDS011;29809;52.432;4.780;2023-09-19T12:10:13;4.80;;;1.98;;
44145;SDS011;29809;52.432;4.780;2023-09-19T12:12:40;6.05;;;1.50;;
44145;SDS011;29809;52.432;4.780;2023-09-19T12:15:11;5.10;;;1.52;;
44145;SDS011;29809;52.432;4.780;2023-09-19T12:17:37;3.72;;;1.60;;
44145;SDS011;29809;52.432;4.780;2023-09-19T12:20:04;3.53;;;1.70;;
44145;SDS011;29809;52.432;4.780;2023-09-19T12:22:44;4.53;;;1.50;;
44145;SDS011;29809;52.432;4.780;2023-09-19T12:25:10;3.97;;;1.55;;
44145;SDS011;29809;52.432;4.780;2023-09-19T12:27:46;5.82;;;1.85;;
44145;SDS011;29809;52.432;4.780;2023-09-19T12:30:12;4.53;;;1.75;;
44145;SDS011;29809;52.432;4.780;2023-09-19T12:32:40;2.80;;;1.67;;
44145;SDS011;29809;52.432;4.780;2023-09-19T12:35:08;4.95;;;1.40;;
44145;SDS011;29809;52.432;4.780;2023-09-19T12:37:36;4.07;;;1.20;;
44145;SDS011;29809;52.432;4.780;2023-09-19T12:40:05;3.22;;;1.30;;
44145;SDS011;29809;52.432;4.780;2023-09-19T12:42:42;4.28;;;1.48;;
44145;SDS011;29809;52.432;4.780;2023-09-19T12:45:07;4.03;;;1.92;;
44145;SDS011;29809;52.432;4.780;2023-09-19T12:47:34;6.43;;;1.63;;
44145;SDS011;29809;52.432;4.780;2023-09-19T12:50:12;3.72;;;1.52;;
44145;SDS011;29809;52.432;4.780;2023-09-19T12:52:45;4.68;;;1.65;;
44145;SDS011;29809;52.432;4.780;2023-09-19T12:55:25;3.63;;;1.42;;
44145;SDS011;29809;52.432;4.780;2023-09-19T13:00:38;4.15;;;1.65;;
44145;SDS011;29809;52.432;4.780;2023-09-19T13:03:14;4.97;;;1.60;;
44145;SDS011;29809;52.432;4.780;2023-09-19T13:05:59;3.83;;;1.70;;
44145;SDS011;29809;52.432;4.780;2023-09-19T13:08:26;3.53;;;1.70;;
44145;SDS011;29809;52.432;4.780;2023-09-19T13:11:09;6.78;;;1.58;;
44145;SDS011;29809;52.432;4.780;2023-09-19T13:13:36;5.47;;;1.75;;
44145;SDS011;29809;52.432;4.780;2023-09-19T13:16:02;3.55;;;1.58;;
44145;SDS011;29809;52.432;4.780;2023-09-19T13:18:28;7.68;;;1.90;;
44145;SDS011;29809;52.432;4.780;2023-09-19T13:21:07;5.22;;;1.92;;
44145;SDS011;29809;52.432;4.780;2023-09-19T13:23:37;5.43;;;2.13;;
44145;SDS011;29809;52.432;4.780;2023-09-19T13:26:02;4.82;;;1.75;;
44145;SDS011;29809;52.432;4.780;2023-09-19T13:28:30;4.85;;;1.67;;
44145;SDS011;29809;52.432;4.780;2023-09-19T13:30:56;5.70;;;1.83;;
44145;SDS011;29809;52.432;4.780;2023-09-19T13:33:22;4.18;;;1.98;;
44145;SDS011;29809;52.432;4.780;2023-09-19T13:35:47;4.45;;;1.90;;
44145;SDS011;29809;52.432;4.780;2023-09-19T13:38:13;5.63;;;2.17;;
44145;SDS011;29809;52.432;4.780;2023-09-19T13:40:39;5.35;;;2.15;;
44145;SDS011;29809;52.432;4.780;2023-09-19T13:43:06;4.50;;;1.92;;
44145;SDS011;29809;52.432;4.780;2023-09-19T13:45:32;3.72;;;1.85;;
44145;SDS011;29809;52.432;4.780;2023-09-19T13:47:57;6.13;;;2.13;;
44145;SDS011;29809;52.432;4.780;2023-09-19T13:50:24;6.75;;;1.92;;
44145;SDS011;29809;52.432;4.780;2023-09-19T13:52:50;9.68;;;2.03;;
44145;SDS011;29809;52.432;4.780;2023-09-19T13:55:18;5.85;;;2.08;;
44145;SDS011;29809;52.432;4.780;2023-09-19T13:57:49;6.97;;;1.65;;
44145;SDS011;29809;52.432;4.780;2023-09-19T14:00:15;5.00;;;2.08;;
44145;SDS011;29809;52.432;4.780;2023-09-19T14:02:41;7.65;;;2.22;;
44145;SDS011;29809;52.432;4.780;2023-09-19T14:05:09;4.70;;;2.22;;
44145;SDS011;29809;52.432;4.780;2023-09-19T14:07:37;5.80;;;2.03;;
44145;SDS011;29809;52.432;4.780;2023-09-19T14:10:02;7.28;;;2.15;;
44145;SDS011;29809;52.432;4.780;2023-09-19T14:12:29;6.88;;;2.13;;
44145;SDS011;29809;52.432;4.780;2023-09-19T14:14:55;4.85;;;2.00;;
44145;SDS011;29809;52.432;4.780;2023-09-19T14:17:21;7.38;;;2.63;;
44145;SDS011;29809;52.432;4.780;2023-09-19T14:19:46;8.30;;;2.35;;
44145;SDS011;29809;52.432;4.780;2023-09-19T14:22:12;6.45;;;1.98;;
44145;SDS011;29809;52.432;4.780;2023-09-19T14:24:39;5.60;;;2.03;;
44145;SDS011;29809;52.432;4.780;2023-09-19T14:27:06;4.70;;;2.03;;
44145;SDS011;29809;52.432;4.780;2023-09-19T14:29:34;7.80;;;2.70;;
44145;SDS011;29809;52.432;4.780;2023-09-19T14:31:59;6.88;;;1.95;;
44145;SDS011;29809;52.432;4.780;2023-09-19T14:34:24;6.53;;;2.78;;
44145;SDS011;29809;52.432;4.780;2023-09-19T14:36:49;11.32;;;3.58;;
44145;SDS011;29809;52.432;4.780;2023-09-19T14:39:14;7.63;;;2.30;;
44145;SDS011;29809;52.432;4.780;2023-09-19T14:41:40;7.95;;;2.70;;
44145;SDS011;29809;52.432;4.780;2023-09-19T14:44:05;10.23;;;3.50;;
44145;SDS011;29809;52.432;4.780;2023-09-19T14:46:30;4.95;;;2.90;;
44145;SDS011;29809;52.432;4.780;2023-09-19T14:48:56;6.20;;;2.75;;
44145;SDS011;29809;52.432;4.780;2023-09-19T14:51:24;11.02;;;3.85;;
44145;SDS011;29809;52.432;4.780;2023-09-19T14:53:49;10.73;;;3.45;;
44145;SDS011;29809;52.432;4.780;2023-09-19T14:56:15;9.65;;;2.90;;
44145;SDS011;29809;52.432;4.780;2023-09-19T14:58:45;10.80;;;2.85;;
44145;SDS011;29809;52.432;4.780;2023-09-19T15:01:11;8.55;;;2.63;;
44145;SDS011;29809;52.432;4.780;2023-09-19T15:03:36;10.07;;;2.95;;
44145;SDS011;29809;52.432;4.780;2023-09-19T15:06:02;10.48;;;2.53;;
44145;SDS011;29809;52.432;4.780;2023-09-19T15:08:29;7.57;;;2.53;;
44145;SDS011;29809;52.432;4.780;2023-09-19T15:10:55;9.65;;;3.15;;
44145;SDS011;29809;52.432;4.780;2023-09-19T15:13:20;6.75;;;2.80;;
44145;SDS011;29809;52.432;4.780;2023-09-19T15:15:46;8.70;;;3.28;;
44145;SDS011;29809;52.432;4.780;2023-09-19T15:18:13;7.05;;;2.83;;
44145;SDS011;29809;52.432;4.780;2023-09-19T15:20:44;6.28;;;2.35;;
44145;SDS011;29809;52.432;4.780;2023-09-19T15:23:10;7.93;;;3.03;;
44145;SDS011;29809;52.432;4.780;2023-09-19T15:25:36;8.10;;;2.95;;
44145;SDS011;29809;52.432;4.780;2023-09-19T15:28:01;6.57;;;2.80;;
44145;SDS011;29809;52.432;4.780;2023-09-19T15:30:36;11.15;;;3.50;;
44145;SDS011;29809;52.432;4.780;2023-09-19T15:33:02;5.63;;;2.25;;